createdAt,value
2022-12-04T00:00:00.621Z,15.10
2022-12-04T00:02:27.289Z,15.10
2022-12-04T00:04:53.945Z,15.10
2022-12-04T00:07:20.542Z,15.10
2022-12-04T00:09:47.080Z,15.10
2022-12-04T00:12:13.715Z,15.10
2022-12-04T00:15:00.767Z,15.10
2022-12-04T00:17:26.816Z,15.10
2022-12-04T00:19:53.730Z,15.10
2022-12-04T00:22:21.096Z,15.10
2022-12-04T00:24:47.685Z,15.10
2022-12-04T00:27:14.297Z,15.10
2022-12-04T00:29:40.825Z,15.10
2022-12-04T00:32:07.544Z,15.10
2022-12-04T00:34:37.180Z,15.10
2022-12-04T00:37:03.739Z,15.20
2022-12-04T00:39:30.278Z,15.10
2022-12-04T00:41:56.827Z,15.10
2022-12-04T00:44:23.356Z,15.10
2022-12-04T00:46:50.234Z,15.10
2022-12-04T00:49:16.815Z,15.10
2022-12-04T00:51:43.389Z,15.10
2022-12-04T00:54:09.981Z,15.10
2022-12-04T00:56:36.528Z,15.10
2022-12-04T00:59:03.450Z,15.10
2022-12-04T01:01:30.674Z,15.00
2022-12-04T01:03:57.472Z,15.70
2022-12-04T01:06:32.610Z,15.00
2022-12-04T01:09:01.522Z,15.00
2022-12-04T01:11:29.435Z,15.00
2022-12-04T01:13:56.994Z,15.00
2022-12-04T01:16:27.138Z,15.00
2022-12-04T01:18:53.995Z,15.00
2022-12-04T01:21:20.669Z,15.00
2022-12-04T01:23:47.754Z,15.00
2022-12-04T01:26:14.747Z,15.00
2022-12-04T01:28:41.742Z,15.00
2022-12-04T01:31:11.603Z,15.00
2022-12-04T01:33:39.365Z,15.00
2022-12-04T01:36:09.576Z,15.00
2022-12-04T01:38:36.597Z,15.00
2022-12-04T01:41:03.902Z,15.00
2022-12-04T01:43:32.881Z,15.00
2022-12-04T01:46:00.649Z,14.90
2022-12-04T01:48:31.762Z,15.00
2022-12-04T01:51:04.687Z,15.00
2022-12-04T01:53:31.875Z,15.00
2022-12-04T01:55:58.839Z,15.00
2022-12-04T01:58:31.660Z,14.90
2022-12-04T02:01:07.946Z,14.90
2022-12-04T02:03:36.035Z,14.90
2022-12-04T02:06:02.609Z,14.90
2022-12-04T02:08:29.830Z,14.90
2022-12-04T02:11:17.792Z,14.90
2022-12-04T02:13:56.381Z,14.90
2022-12-04T02:16:41.982Z,14.90
2022-12-04T02:19:30.072Z,14.90
2022-12-04T02:21:59.387Z,14.90
2022-12-04T02:24:35.338Z,14.90
2022-12-04T02:27:15.247Z,14.90
2022-12-04T02:30:07.539Z,14.90
2022-12-04T02:32:51.247Z,14.90
2022-12-04T02:35:29.713Z,14.90
2022-12-04T02:38:06.882Z,14.90
2022-12-04T02:41:05.649Z,14.90
2022-12-04T02:43:50.945Z,14.80
2022-12-04T02:46:31.157Z,14.90
2022-12-04T02:49:02.352Z,14.90
2022-12-04T02:51:32.958Z,14.90
2022-12-04T02:54:05.592Z,14.90
2022-12-04T02:56:37.410Z,15.00
2022-12-04T02:59:16.134Z,15.00
2022-12-04T03:01:46.618Z,15.10
2022-12-04T03:04:22.184Z,15.10
2022-12-04T03:06:57.427Z,15.20
2022-12-04T03:09:58.535Z,15.20
2022-12-04T03:12:42.034Z,15.20
2022-12-04T03:15:16.146Z,15.30
2022-12-04T03:17:58.225Z,15.30
2022-12-04T03:20:25.600Z,15.40
2022-12-04T03:22:59.425Z,15.40
2022-12-04T03:25:32.906Z,15.40
2022-12-04T03:28:07.429Z,15.40
2022-12-04T03:30:44.337Z,15.50
2022-12-04T03:33:18.280Z,15.50
2022-12-04T03:35:51.030Z,15.50
2022-12-04T03:38:41.750Z,15.50
2022-12-04T03:41:20.897Z,15.50
2022-12-04T03:44:06.456Z,15.60
2022-12-04T03:46:48.589Z,15.60
2022-12-04T03:49:27.120Z,15.60
2022-12-04T03:52:04.791Z,15.60
2022-12-04T03:54:41.351Z,15.60
2022-12-04T03:57:15.830Z,15.60
2022-12-04T03:59:55.853Z,15.60
2022-12-04T04:02:28.317Z,15.60
2022-12-04T04:04:58.746Z,15.60
2022-12-04T04:07:35.576Z,15.60
2022-12-04T04:10:07.514Z,15.60
2022-12-04T04:12:39.992Z,15.70
2022-12-04T04:15:28.375Z,15.60
2022-12-04T04:18:15.119Z,15.70
2022-12-04T04:21:05.682Z,15.70
2022-12-04T04:23:57.480Z,15.70
2022-12-04T04:26:27.744Z,15.70
2022-12-04T04:28:54.492Z,15.70
2022-12-04T04:31:36.190Z,16.00
2022-12-04T04:34:19.726Z,15.60
2022-12-04T04:36:53.638Z,15.70
2022-12-04T04:39:27.767Z,15.70
2022-12-04T04:41:57.651Z,15.70
2022-12-04T04:44:30.079Z,15.70
2022-12-04T04:47:02.912Z,15.70
2022-12-04T04:49:33.944Z,15.60
2022-12-04T04:52:01.375Z,15.70
2022-12-04T04:54:29.704Z,15.60
2022-12-04T04:56:56.272Z,15.70
2022-12-04T04:59:22.905Z,15.70
2022-12-04T05:01:49.805Z,15.70
2022-12-04T05:04:16.528Z,15.70
2022-12-04T05:06:43.091Z,15.70
2022-12-04T05:09:09.660Z,15.70
2022-12-04T05:11:36.417Z,15.70
2022-12-04T05:14:06.092Z,15.70
2022-12-04T05:16:32.848Z,15.80
2022-12-04T05:19:17.993Z,15.60
2022-12-04T05:21:44.530Z,15.60
2022-12-04T05:24:11.080Z,15.60
2022-12-04T05:26:37.665Z,15.60
2022-12-04T05:29:04.234Z,15.60
2022-12-04T05:31:34.055Z,15.60
2022-12-04T05:34:00.666Z,15.60
2022-12-04T05:36:27.195Z,15.60
2022-12-04T05:38:53.766Z,15.60
2022-12-04T05:41:20.433Z,15.60
2022-12-04T05:43:47.035Z,15.60
2022-12-04T05:46:13.683Z,15.60
2022-12-04T05:48:40.273Z,15.60
2022-12-04T05:51:08.128Z,15.60
2022-12-04T05:53:35.033Z,15.60
2022-12-04T05:56:03.281Z,15.60
2022-12-04T05:58:29.964Z,15.60
2022-12-04T06:00:56.539Z,15.60
2022-12-04T06:03:23.293Z,15.70
2022-12-04T06:05:49.858Z,15.60
2022-12-04T06:08:16.601Z,15.60
2022-12-04T06:10:43.167Z,15.70
2022-12-04T06:13:09.783Z,15.70
2022-12-04T06:15:40.744Z,15.60
2022-12-04T06:18:08.046Z,15.60
2022-12-04T06:20:34.802Z,15.60
2022-12-04T06:23:01.667Z,15.60
2022-12-04T06:25:28.287Z,15.60
2022-12-04T06:27:54.929Z,15.70
2022-12-04T06:30:21.609Z,15.70
2022-12-04T06:32:48.176Z,15.60
2022-12-04T06:35:14.802Z,15.60
2022-12-04T06:37:41.392Z,15.60
2022-12-04T06:40:08.638Z,15.60
2022-12-04T06:42:35.216Z,15.60
2022-12-04T06:45:01.936Z,15.60
2022-12-04T06:47:28.474Z,15.60
2022-12-04T06:49:56.298Z,15.60
2022-12-04T06:52:23.045Z,15.60
2022-12-04T06:54:49.573Z,15.60
2022-12-04T06:57:16.125Z,15.60
2022-12-04T06:59:42.653Z,15.60
2022-12-04T07:02:09.861Z,15.00
2022-12-04T07:04:36.501Z,15.10
2022-12-04T07:07:03.071Z,15.10
2022-12-04T07:09:29.645Z,15.10
2022-12-04T07:11:56.185Z,15.70
2022-12-04T07:14:22.784Z,12.20
2022-12-04T07:16:49.440Z,11.10
2022-12-04T07:19:16.213Z,12.10
2022-12-04T07:21:43.450Z,13.20
2022-12-04T07:24:15.525Z,13.90
2022-12-04T07:26:42.111Z,14.40
2022-12-04T07:29:10.059Z,13.50
2022-12-04T07:31:36.879Z,12.90
2022-12-04T07:34:03.504Z,12.70
2022-12-04T07:36:30.064Z,13.50
2022-12-04T07:38:56.824Z,14.10
2022-12-04T07:41:23.897Z,14.50
2022-12-04T07:43:50.817Z,14.70
2022-12-04T07:46:20.556Z,14.90
2022-12-04T07:48:47.195Z,15.00
2022-12-04T07:51:20.315Z,15.10
2022-12-04T07:53:47.780Z,15.20
2022-12-04T07:56:15.061Z,15.30
2022-12-04T07:58:42.366Z,15.30
2022-12-04T08:01:15.690Z,15.40
2022-12-04T08:03:47.958Z,15.40
2022-12-04T08:06:15.232Z,15.40
2022-12-04T08:08:41.786Z,15.40
2022-12-04T08:11:11.727Z,15.50
2022-12-04T08:13:38.306Z,15.50
2022-12-04T08:16:06.707Z,15.50
2022-12-04T08:18:33.809Z,15.50
2022-12-04T08:21:09.215Z,15.50
2022-12-04T08:23:36.487Z,15.50
2022-12-04T08:26:03.852Z,15.50
2022-12-04T08:28:31.173Z,15.20
2022-12-04T08:31:04.426Z,15.20
2022-12-04T08:33:31.540Z,15.40
2022-12-04T08:35:58.300Z,15.40
2022-12-04T08:38:24.866Z,15.50
2022-12-04T08:40:51.534Z,15.50
2022-12-04T08:43:18.119Z,15.60
2022-12-04T08:45:44.729Z,15.50
2022-12-04T08:48:11.267Z,15.60
2022-12-04T08:50:37.793Z,15.60
2022-12-04T08:53:04.356Z,15.60
2022-12-04T08:55:31.012Z,15.60
2022-12-04T08:57:57.540Z,15.60
2022-12-04T09:00:25.831Z,15.60
2022-12-04T09:02:52.366Z,15.60
2022-12-04T09:05:18.897Z,15.60
2022-12-04T09:07:45.497Z,15.60
2022-12-04T09:10:12.612Z,15.60
2022-12-04T09:12:39.210Z,15.60
2022-12-04T09:15:06.618Z,15.60
2022-12-04T09:17:35.870Z,12.60
2022-12-04T09:20:04.130Z,10.20
2022-12-04T09:22:51.412Z,9.40
2022-12-04T09:25:18.191Z,10.60
2022-12-04T09:27:44.893Z,12.00
2022-12-04T09:30:12.810Z,12.90
2022-12-04T09:32:39.381Z,13.50
2022-12-04T09:35:06.719Z,13.90
2022-12-04T09:37:33.618Z,14.10
2022-12-04T09:40:00.228Z,14.40
2022-12-04T09:42:44.009Z,14.50
2022-12-04T09:45:24.040Z,14.40
2022-12-04T09:47:54.993Z,14.60
2022-12-04T09:50:42.920Z,14.80
2022-12-04T09:53:18.235Z,15.00
2022-12-04T09:55:56.035Z,15.10
2022-12-04T09:58:28.387Z,15.10
2022-12-04T10:00:56.387Z,15.20
2022-12-04T10:03:27.757Z,15.30
2022-12-04T10:06:05.346Z,15.30
2022-12-04T10:08:41.746Z,15.40
2022-12-04T10:11:20.914Z,15.40
2022-12-04T10:14:17.228Z,15.20
2022-12-04T10:17:15.973Z,15.20
2022-12-04T10:19:48.566Z,15.40
2022-12-04T10:22:43.763Z,15.50
2022-12-04T10:25:22.885Z,15.60
2022-12-04T10:28:02.565Z,15.60
2022-12-04T10:30:33.781Z,15.60
2022-12-04T10:33:11.267Z,15.70
2022-12-04T10:35:39.165Z,15.70
2022-12-04T10:38:23.375Z,15.70
2022-12-04T10:41:00.282Z,15.80
2022-12-04T10:43:47.469Z,15.60
2022-12-04T10:46:27.010Z,15.40
2022-12-04T10:49:00.977Z,15.60
2022-12-04T10:51:31.487Z,15.60
2022-12-04T10:53:58.543Z,15.60
2022-12-04T10:56:26.653Z,15.70
2022-12-04T10:59:17.869Z,15.70
2022-12-04T11:01:45.444Z,15.70
2022-12-04T11:04:25.332Z,15.70
2022-12-04T11:07:04.189Z,15.70
2022-12-04T11:09:32.366Z,15.50
2022-12-04T11:12:17.636Z,15.70
2022-12-04T11:14:47.155Z,15.70
2022-12-04T11:17:19.216Z,15.70
2022-12-04T11:19:46.135Z,15.70
2022-12-04T11:22:15.777Z,15.80
2022-12-04T11:24:43.229Z,15.80
2022-12-04T11:27:32.957Z,15.80
2022-12-04T11:30:03.043Z,15.90
2022-12-04T11:32:32.984Z,15.90
2022-12-04T11:35:07.218Z,15.90
2022-12-04T11:37:36.477Z,15.90
2022-12-04T11:40:15.733Z,15.80
2022-12-04T11:42:42.358Z,15.90
2022-12-04T11:45:22.641Z,15.90
2022-12-04T11:47:57.956Z,15.90
2022-12-04T11:50:39.185Z,15.90
2022-12-04T11:53:20.233Z,16.10
2022-12-04T11:56:16.889Z,15.80
2022-12-04T11:59:09.461Z,15.90
2022-12-04T12:02:01.247Z,15.90
2022-12-04T12:04:45.992Z,15.90
2022-12-04T12:07:27.669Z,15.90
2022-12-04T12:10:19.093Z,15.90
2022-12-04T12:13:17.135Z,15.90
2022-12-04T12:15:58.692Z,15.80
2022-12-04T12:18:30.868Z,15.90
2022-12-04T12:21:33.755Z,15.80
2022-12-04T12:24:22.931Z,15.90
2022-12-04T12:27:33.222Z,15.90
2022-12-04T12:30:09.486Z,15.90
2022-12-04T12:32:39.109Z,15.90
2022-12-04T12:35:26.103Z,15.90
2022-12-04T12:37:56.130Z,15.90
2022-12-04T12:40:33.900Z,15.90
2022-12-04T12:43:10.529Z,15.80
2022-12-04T12:46:07.869Z,15.90
2022-12-04T12:48:52.485Z,15.90
2022-12-04T12:51:35.215Z,15.90
2022-12-04T12:54:28.286Z,15.90
2022-12-04T12:57:02.278Z,15.90
2022-12-04T12:59:29.222Z,15.90
2022-12-04T13:04:43.463Z,15.90
2022-12-04T13:07:28.044Z,15.90
2022-12-04T13:10:14.965Z,15.90
2022-12-04T13:12:52.672Z,15.90
2022-12-04T13:15:22.677Z,15.90
2022-12-04T13:17:52.977Z,15.90
2022-12-04T13:20:28.232Z,15.90
2022-12-04T13:23:11.744Z,15.90
2022-12-04T13:25:56.152Z,15.90
2022-12-04T13:28:46.098Z,15.50
2022-12-04T13:31:26.933Z,15.80
2022-12-04T13:34:07.881Z,15.80
2022-12-04T13:36:59.392Z,13.70
2022-12-04T13:39:50.242Z,14.10
2022-12-04T13:42:23.964Z,15.20
2022-12-04T13:44:59.725Z,15.40
2022-12-04T13:47:29.817Z,15.50
2022-12-04T13:50:30.477Z,15.60
2022-12-04T13:52:57.877Z,15.70
2022-12-04T13:55:31.994Z,15.70
2022-12-04T13:58:02.495Z,15.80
2022-12-04T14:00:32.575Z,15.80
2022-12-04T14:03:05.835Z,15.80
2022-12-04T14:05:43.249Z,15.80
2022-12-04T14:08:19.116Z,15.90
2022-12-04T14:10:57.497Z,15.90
2022-12-04T14:13:29.165Z,15.80
2022-12-04T14:16:09.969Z,15.90
2022-12-04T14:21:05.900Z,16.00
2022-12-04T14:23:38.389Z,16.00
2022-12-04T14:26:18.400Z,16.00
2022-12-04T14:28:45.235Z,16.00
2022-12-04T14:31:17.550Z,16.00
2022-12-04T14:33:57.813Z,16.00
2022-12-04T14:36:32.214Z,16.00
2022-12-04T14:39:07.990Z,16.00
2022-12-04T14:41:34.880Z,16.00
2022-12-04T14:44:01.787Z,15.90
2022-12-04T14:46:43.709Z,16.00
2022-12-04T14:49:35.692Z,16.00
2022-12-04T14:52:23.910Z,16.00
2022-12-04T14:55:01.137Z,16.00
2022-12-04T14:57:36.465Z,16.00
2022-12-04T15:00:05.610Z,16.00
2022-12-04T15:02:38.292Z,16.00
2022-12-04T15:05:15.801Z,15.90
2022-12-04T15:07:49.110Z,15.90
2022-12-04T15:10:43.836Z,15.90
2022-12-04T15:13:11.001Z,15.90
2022-12-04T15:15:44.385Z,15.90
2022-12-04T15:18:16.312Z,15.90
2022-12-04T15:20:58.263Z,15.90
2022-12-04T15:23:33.820Z,15.90
2022-12-04T15:26:02.983Z,15.90
2022-12-04T15:28:35.088Z,15.80
2022-12-04T15:31:03.877Z,15.90
2022-12-04T15:33:35.208Z,15.90
2022-12-04T15:36:13.779Z,15.90
2022-12-04T15:38:40.834Z,15.70
2022-12-04T15:41:24.182Z,15.90
2022-12-04T15:43:50.712Z,15.80
2022-12-04T15:46:37.837Z,15.80
2022-12-04T15:49:18.840Z,15.80
2022-12-04T15:51:46.912Z,15.80
2022-12-04T15:54:20.241Z,15.80
2022-12-04T15:57:01.498Z,15.80
2022-12-04T15:59:29.541Z,15.80
2022-12-04T16:02:01.563Z,15.80
2022-12-04T16:04:29.401Z,15.80
2022-12-04T16:06:56.271Z,15.80
2022-12-04T16:09:22.831Z,15.80
2022-12-04T16:12:14.782Z,15.80
2022-12-04T16:14:41.338Z,15.80
2022-12-04T16:17:10.591Z,15.80
2022-12-04T16:19:39.493Z,15.80
2022-12-04T16:22:26.229Z,15.80
2022-12-04T16:24:53.589Z,15.80
2022-12-04T16:27:23.531Z,15.80
2022-12-04T16:29:51.163Z,15.90
2022-12-04T16:32:20.180Z,15.90
2022-12-04T16:34:48.587Z,15.80
2022-12-04T16:37:19.006Z,12.80
2022-12-04T16:39:45.621Z,12.70
2022-12-04T16:42:21.484Z,11.70
2022-12-04T16:44:48.622Z,12.70
2022-12-04T16:47:15.736Z,13.70
2022-12-04T16:49:43.889Z,14.40
2022-12-04T16:52:12.039Z,14.70
2022-12-04T16:54:39.572Z,15.00
2022-12-04T16:57:07.216Z,15.20
2022-12-04T16:59:33.889Z,15.30
2022-12-04T17:02:01.410Z,15.30
2022-12-04T17:04:28.183Z,15.30
2022-12-04T17:06:54.861Z,15.50
2022-12-04T17:09:21.591Z,15.50
2022-12-04T17:11:48.164Z,15.60
2022-12-04T17:14:14.856Z,15.70
2022-12-04T17:16:43.110Z,15.70
2022-12-04T17:19:11.201Z,15.80
2022-12-04T17:21:38.161Z,15.80
2022-12-04T17:24:05.136Z,15.80
2022-12-04T17:26:31.957Z,15.80
2022-12-04T17:28:58.506Z,15.90
2022-12-04T17:31:26.736Z,15.90
2022-12-04T17:33:53.901Z,15.90
2022-12-04T17:36:23.397Z,15.90
2022-12-04T17:38:56.944Z,15.90
2022-12-04T17:41:23.918Z,15.90
2022-12-04T17:43:50.627Z,15.90
2022-12-04T17:46:21.422Z,15.90
2022-12-04T17:48:48.719Z,15.90
2022-12-04T17:51:19.036Z,15.90
2022-12-04T17:53:45.726Z,15.90
2022-12-04T17:56:18.246Z,15.90
2022-12-04T17:58:45.632Z,16.00
2022-12-04T18:01:14.964Z,15.90
2022-12-04T18:03:43.240Z,15.90
2022-12-04T18:06:18.396Z,15.90
2022-12-04T18:08:49.879Z,15.90
2022-12-04T18:11:20.651Z,15.90
2022-12-04T18:13:49.409Z,15.90
2022-12-04T18:16:16.226Z,15.80
2022-12-04T18:18:46.495Z,15.80
2022-12-04T18:21:14.105Z,15.80
2022-12-04T18:23:45.677Z,15.80
2022-12-04T18:26:16.492Z,15.80
2022-12-04T18:28:43.709Z,15.80
2022-12-04T18:31:10.816Z,15.80
2022-12-04T18:33:39.029Z,15.80
2022-12-04T18:36:06.729Z,15.80
2022-12-04T18:38:33.356Z,15.90
2022-12-04T18:41:03.975Z,15.90
2022-12-04T18:43:34.156Z,15.90
2022-12-04T18:46:07.130Z,15.90
2022-12-04T18:48:35.353Z,15.80
2022-12-04T18:51:02.247Z,15.90
2022-12-04T18:53:29.022Z,15.90
2022-12-04T18:55:55.575Z,15.90
2022-12-04T18:58:22.826Z,15.90
2022-12-04T19:00:51.583Z,15.90
2022-12-04T19:03:18.352Z,15.90
2022-12-04T19:05:51.758Z,15.90
2022-12-04T19:08:18.366Z,15.90
2022-12-04T19:10:45.002Z,15.90
2022-12-04T19:13:11.588Z,15.90
2022-12-04T19:15:44.596Z,15.90
2022-12-04T19:18:11.409Z,15.90
2022-12-04T19:20:41.965Z,15.90
2022-12-04T19:23:08.809Z,15.90
2022-12-04T19:25:35.434Z,15.90
2022-12-04T19:28:03.221Z,15.90
2022-12-04T19:30:30.197Z,15.90
2022-12-04T19:32:57.134Z,15.90
2022-12-04T19:35:23.705Z,16.00
2022-12-04T19:37:54.497Z,16.00
2022-12-04T19:40:21.465Z,16.00
2022-12-04T19:42:48.052Z,16.00
2022-12-04T19:45:17.232Z,16.00
2022-12-04T19:47:43.755Z,16.00
2022-12-04T19:50:10.802Z,16.00
2022-12-04T19:52:37.375Z,16.00
2022-12-04T19:55:04.251Z,16.00
2022-12-04T19:57:30.801Z,16.00
2022-12-04T19:59:57.408Z,16.00
2022-12-04T20:02:24.135Z,16.10
2022-12-04T20:04:50.714Z,16.00
2022-12-04T20:07:17.289Z,16.10
2022-12-04T20:09:52.009Z,16.10
2022-12-04T20:12:19.390Z,16.00
2022-12-04T20:14:46.009Z,16.10
2022-12-04T20:17:12.599Z,16.00
2022-12-04T20:19:39.227Z,16.00
2022-12-04T20:22:05.815Z,16.00
2022-12-04T20:24:32.492Z,16.00
2022-12-04T20:27:00.951Z,16.10
2022-12-04T20:29:27.617Z,16.00
2022-12-04T20:31:54.207Z,16.00
2022-12-04T20:34:21.465Z,16.00
2022-12-04T20:36:49.093Z,16.00
2022-12-04T20:39:17.262Z,16.00
2022-12-04T20:41:44.007Z,16.00
2022-12-04T20:44:16.004Z,16.00
2022-12-04T20:46:42.936Z,16.00
2022-12-04T20:49:18.828Z,16.10
2022-12-04T20:51:47.921Z,15.80
2022-12-04T20:54:18.474Z,15.80
2022-12-04T20:56:45.920Z,15.90
2022-12-04T20:59:14.578Z,15.90
2022-12-04T21:01:42.882Z,15.90
2022-12-04T21:04:09.905Z,15.90
2022-12-04T21:06:39.933Z,16.00
2022-12-04T21:09:15.750Z,16.00
2022-12-04T21:11:45.154Z,16.00
2022-12-04T21:14:34.069Z,16.00
2022-12-04T21:17:01.526Z,15.00
2022-12-04T21:19:30.055Z,15.40
2022-12-04T21:21:57.011Z,15.60
2022-12-04T21:24:26.473Z,15.80
2022-12-04T21:26:54.100Z,15.80
2022-12-04T21:29:21.278Z,15.80
2022-12-04T21:31:47.953Z,15.80
2022-12-04T21:34:16.906Z,15.70
2022-12-04T21:36:43.990Z,15.70
2022-12-04T21:39:10.840Z,10.50
2022-12-04T21:41:56.193Z,10.40
2022-12-04T21:44:23.325Z,10.90
2022-12-04T21:46:50.657Z,12.30
2022-12-04T21:49:18.894Z,13.20
2022-12-04T21:51:57.386Z,13.90
2022-12-04T21:54:26.310Z,14.30
2022-12-04T21:56:52.850Z,14.50
2022-12-04T21:59:19.423Z,14.70
2022-12-04T22:01:46.115Z,14.80
2022-12-04T22:04:12.963Z,14.90
2022-12-04T22:06:39.755Z,14.90
2022-12-04T22:09:08.556Z,15.00
2022-12-04T22:11:35.371Z,15.00
2022-12-04T22:14:02.122Z,15.00
2022-12-04T22:16:30.965Z,15.10
2022-12-04T22:18:59.073Z,15.10
2022-12-04T22:21:26.793Z,15.20
2022-12-04T22:23:58.261Z,15.10
2022-12-04T22:26:25.352Z,15.10
2022-12-04T22:28:52.167Z,15.10
2022-12-04T22:31:23.941Z,15.10
2022-12-04T22:33:53.027Z,17.80
2022-12-04T22:36:22.124Z,15.10
2022-12-04T22:41:36.131Z,15.10
2022-12-04T22:44:02.861Z,15.10
2022-12-04T22:46:29.512Z,15.10
2022-12-04T22:48:56.163Z,15.10
2022-12-04T22:51:23.052Z,15.10
2022-12-04T22:53:55.796Z,15.10
2022-12-04T22:56:31.599Z,15.10
2022-12-04T22:58:59.228Z,15.10
2022-12-04T23:01:26.870Z,15.10
2022-12-04T23:03:53.944Z,15.10
2022-12-04T23:06:22.435Z,15.10
2022-12-04T23:08:53.383Z,15.10
2022-12-04T23:11:21.678Z,15.10
2022-12-04T23:13:56.393Z,15.10
2022-12-04T23:16:24.542Z,15.10
2022-12-04T23:18:51.155Z,15.10
2022-12-04T23:21:18.948Z,15.10
2022-12-04T23:23:46.729Z,15.10
2022-12-04T23:26:16.133Z,15.10
2022-12-04T23:28:43.316Z,15.10
2022-12-04T23:31:10.883Z,15.10
2022-12-04T23:33:38.423Z,15.10
2022-12-04T23:36:06.874Z,15.10
2022-12-04T23:38:35.513Z,15.10
2022-12-04T23:41:13.038Z,15.10
2022-12-04T23:43:40.650Z,15.10
2022-12-04T23:46:11.383Z,15.10
2022-12-04T23:48:39.740Z,15.10
2022-12-04T23:51:07.364Z,15.10
2022-12-04T23:53:34.207Z,15.10
2022-12-04T23:56:22.861Z,15.10
2022-12-04T23:58:51.599Z,15.10
